Terminal Aerodrome Forecast
Issued by NWS

Home | Current Version | Previous Version | Text Only | Print | Product List | Glossary On
Versions: 1 2 3 4 5 6 7 8 9 10 11 12
818
FTUS43 KGRB 260941 AAA
TAFAUW
TAF AMD
KAUW 260941Z 2610/2706 10007KT 6SM -SHRA BR SCT007 OVC015
      TEMPO 2610/2614 4SM SHRA BKN007
     FM261400 15009KT 4SM SHRA BR OVC007
     FM261700 21008KT 6SM -SHRA OVC015
     FM262100 27008KT P6SM VCSH OVC015
     FM270200 32007KT P6SM OVC015=

USA.gov is the U.S. government's official web portal to all federal, state and local government web resources and services.